Time;durP1;ratioP1;P1;durP2;ratioP2;P2;SDS_P1;SDS_P2;PMS_P1;PMS_P2;Temp;Humidity;BMP_temperature;BMP_pressure;BME280_temperature;BME280_humidity;BME280_pressure;Samples;Min_cycle;Max_cycle;Signal;HPM_P1;HPM_P2
2022/04/15 00:02:18;;;;;;;38.60;18.15;;;;;;;11.67;100.00;98957.34;4367574;32;20069;-73
2022/04/15 00:04:45;;;;;;;36.05;16.80;;;;;;;11.41;100.00;98932.88;4366970;32;20074;-72
2022/04/15 00:07:12;;;;;;;32.28;16.52;;;;;;;11.34;100.00;98932.25;4361750;32;20044;-72
2022/04/15 00:09:38;;;;;;;40.22;16.90;;;;;;;11.50;100.00;98965.56;4341007;33;20054;-74
2022/04/15 00:12:10;;;;;;;32.75;16.45;;;;;;;11.31;100.00;98932.78;4347293;32;20056;-74
2022/04/15 00:14:37;;;;;;;;;;;;;;;11.52;100.00;98975.03;4341090;32;20086;-73
2022/04/15 00:17:04;;;;;;;33.50;16.95;;;;;;;11.51;100.00;98970.69;4339945;32;19936;-73
2022/04/15 00:19:30;;;;;;;29.58;15.65;;;;;;;11.39;100.00;98964.66;4342214;33;20087;-73
2022/04/15 00:21:57;;;;;;;32.17;15.88;;;;;;;11.13;100.00;98937.47;4343044;32;20078;-73
2022/04/15 00:24:24;;;;;;;38.50;16.37;;;;;;;11.31;100.00;98970.50;4360856;32;20102;-73
2022/04/15 00:26:50;;;;;;;34.03;18.30;;;;;;;11.09;100.00;98936.38;4353197;32;20162;-74
2022/04/15 00:29:17;;;;;;;34.58;16.73;;;;;;;11.34;100.00;98972.69;4362268;32;20058;-73
2022/04/15 00:31:43;;;;;;;33.60;16.33;;;;;;;11.35;100.00;98977.03;4339735;33;20040;-74
2022/04/15 00:34:10;;;;;;;30.50;17.00;;;;;;;11.06;100.00;98940.38;4342058;32;20115;-73
2022/04/15 00:36:36;;;;;;;32.85;16.10;;;;;;;11.35;100.00;98977.03;4354714;32;20114;-73
2022/04/15 00:39:03;;;;;;;33.28;15.82;;;;;;;11.33;100.00;98976.44;4360781;32;20040;-73
2022/04/15 00:41:29;;;;;;;34.78;16.30;;;;;;;11.29;100.00;98978.06;4370947;32;20051;-73
2022/04/15 00:44:02;;;;;;;34.15;16.48;;;;;;;10.96;100.00;98926.00;4370513;32;20069;-73
2022/04/15 00:46:35;;;;;;;29.77;14.70;;;;;;;10.97;100.00;98933.00;4356480;32;20426;-73
2022/04/15 00:49:02;;;;;;;31.58;15.93;;;;;;;10.87;100.00;98922.97;4356430;32;20070;-73
2022/04/15 00:51:29;;;;;;;36.78;13.95;;;;;;;11.10;100.00;98967.62;4357186;32;20069;-75
2022/04/15 00:54:03;;;;;;;31.15;16.10;;;;;;;11.02;100.00;98971.59;4366742;32;20456;-74
2022/04/15 00:56:36;;;;;;;38.95;17.83;;;;;;;11.03;100.00;98967.03;4358433;32;20113;-73
2022/04/15 00:59:02;;;;;;;;;;;;;;;10.59;100.00;98907.84;4361675;32;20047;-73
2022/04/15 01:01:28;;;;;;;37.80;15.73;;;;;;;11.00;100.00;98976.41;4354112;32;19939;-74
2022/04/15 01:03:56;;;;;;;30.27;16.73;;;;;;;10.75;100.00;98960.00;4369942;32;20076;-73
2022/04/15 01:06:28;;;;;;;38.08;16.33;;;;;;;10.97;100.00;98981.50;4370964;32;20043;-74
2022/04/15 01:08:58;;;;;;;32.88;15.73;;;;;;;10.92;100.00;98978.75;4370910;32;20077;-74
2022/04/15 01:11:28;;;;;;;42.42;17.25;;;;;;;10.89;100.00;98972.78;4368639;32;20069;-76
2022/04/15 01:13:59;;;;;;;36.53;18.33;;;;;;;10.92;100.00;98974.19;4369963;32;20065;-74
2022/04/15 01:16:33;;;;;;;35.25;16.52;;;;;;;10.85;100.00;98969.00;4364477;32;20437;-74
2022/04/15 01:18:59;;;;;;;44.22;16.87;;;;;;;10.81;100.00;98973.25;4368711;32;20369;-75
2022/04/15 01:21:31;;;;;;;36.38;16.40;;;;;;;10.75;100.00;98982.34;4367842;32;20040;-74
2022/04/15 01:23:58;;;;;;;36.70;14.90;;;;;;;10.66;100.00;98955.06;4370688;32;20058;-73
2022/04/15 01:26:24;;;;;;;37.55;17.37;;;;;;;10.43;100.00;98934.56;4371105;32;20523;-73
2022/04/15 01:28:51;;;;;;;32.00;16.65;;;;;;;10.44;100.00;98930.84;4369720;32;20079;-72
2022/04/15 01:31:17;;;;;;;31.98;16.75;;;;;;;10.68;100.00;98968.25;4369905;32;20485;-74
2022/04/15 01:33:43;;;;;;;39.70;16.60;;;;;;;10.65;100.00;98974.16;4368141;32;20066;-73
2022/04/15 01:36:10;;;;;;;31.87;17.62;;;;;;;10.61;100.00;98973.00;4355958;32;20181;-73
2022/04/15 01:38:38;;;;;;;36.55;18.55;;;;;;;10.62;100.00;98971.97;4356031;32;20480;-73
2022/04/15 01:41:04;;;;;;;38.58;17.52;;;;;;;10.56;100.00;98964.87;4355816;32;20044;-73
2022/04/15 01:43:31;;;;;;;32.75;17.35;;;;;;;10.35;100.00;98927.78;4355269;32;20388;-74
2022/04/15 01:45:57;;;;;;;35.58;18.05;;;;;;;10.36;100.00;98934.78;4354652;32;20039;-73
2022/04/15 01:48:23;;;;;;;34.13;16.73;;;;;;;10.58;100.00;98958.19;4355028;32;20089;-73
2022/04/15 01:50:50;;;;;;;34.60;16.15;;;;;;;10.65;100.00;98971.47;4370484;32;20133;-73
2022/04/15 01:53:17;;;;;;;35.85;17.50;;;;;;;10.41;100.00;98935.91;4370606;32;20204;-74
2022/04/15 01:55:43;;;;;;;44.65;18.77;;;;;;;10.52;100.00;98949.22;4367952;32;20069;-74
2022/04/15 01:58:09;;;;;;;32.17;16.55;;;;;;;10.60;100.00;98966.03;4369434;32;20159;-74
2022/04/15 02:00:36;;;;;;;36.08;18.98;;;;;;;10.60;100.00;98966.03;4369432;32;20043;-74
2022/04/15 02:03:02;;;;;;;34.22;18.58;;;;;;;10.54;100.00;98960.56;4355936;32;20372;-74
2022/04/15 02:05:29;;;;;;;39.38;18.10;;;;;;;10.59;100.00;98961.69;4369978;32;20036;-75
2022/04/15 02:07:55;;;;;;;33.50;16.98;;;;;;;10.60;100.00;98957.94;4369410;32;20377;-74
2022/04/15 02:10:22;;;;;;;34.03;18.25;;;;;;;10.37;100.00;98922.16;4355536;32;20052;-73
2022/04/15 02:12:55;;;;;;;32.05;17.70;;;;;;;10.61;100.00;98956.84;4369954;32;20073;-73
2022/04/15 02:15:22;;;;;;;32.25;18.23;;;;;;;10.64;100.00;98956.34;4370539;32;20043;-73
2022/04/15 02:17:48;;;;;;;32.38;18.45;;;;;;;10.66;100.00;98962.31;4354029;32;20066;-74
2022/04/15 02:20:14;;;;;;;38.70;18.42;;;;;;;10.60;100.00;98952.56;4355536;33;20052;-74
2022/04/15 02:22:41;;;;;;;41.55;19.33;;;;;;;10.60;100.00;98961.44;4342043;33;20039;-74
2022/04/15 02:25:08;;;;;;;37.40;17.77;;;;;;;10.65;100.00;98952.59;4342605;33;20061;-73
2022/04/15 02:27:35;;;;;;;30.98;17.98;;;;;;;10.63;100.00;98955.56;4356597;32;20402;-76
2022/04/15 02:30:02;;;;;;;35.92;19.25;;;;;;;10.67;100.00;98966.63;4368011;32;20092;-73
2022/04/15 02:32:29;;;;;;;42.30;19.50;;;;;;;10.26;100.00;98893.44;4356655;32;20865;-74
2022/04/15 02:34:55;;;;;;;28.70;16.95;;;;;;;10.66;100.00;98959.63;4355568;33;20061;-73
2022/04/15 02:37:22;;;;;;;33.83;16.98;;;;;;;10.64;100.00;98964.44;4355354;33;20062;-74
2022/04/15 02:39:49;;;;;;;35.15;18.20;;;;;;;10.35;100.00;98916.19;4354105;33;20058;-75
2022/04/15 02:42:15;;;;;;;39.80;17.80;;;;;;;10.62;100.00;98964.69;4352996;32;20024;-74
2022/04/15 02:44:42;;;;;;;35.30;18.52;;;;;;;10.61;100.00;98954.16;4341713;33;20471;-75
2022/04/15 02:47:08;;;;;;;37.40;18.90;;;;;;;10.62;100.00;98961.19;4354622;33;20353;-73
2022/04/15 02:49:35;;;;;;;33.15;17.87;;;;;;;10.62;100.00;98963.87;4342076;33;20074;-73
2022/04/15 02:52:02;;;;;;;37.80;19.17;;;;;;;10.61;100.00;98956.84;4339981;32;20037;-74
2022/04/15 02:54:29;;;;;;;37.28;19.12;;;;;;;10.36;100.00;98921.31;4356400;32;20027;-74
2022/04/15 02:56:55;;;;;;;38.85;19.80;;;;;;;10.57;100.00;98966.53;4358289;32;20051;-73
2022/04/15 02:59:21;;;;;;;40.67;21.37;;;;;;;10.54;100.00;98957.84;4358163;32;20381;-73
2022/04/15 03:01:49;;;;;;;44.78;20.80;;;;;;;10.57;100.00;98971.91;4356247;32;20391;-73
2022/04/15 03:04:15;;;;;;;42.35;21.05;;;;;;;10.53;100.00;98974.28;4355548;32;20061;-73
2022/04/15 03:06:49;;;;;;;41.08;19.70;;;;;;;10.49;100.00;98976.66;4357726;32;20055;-72
2022/04/15 03:09:15;;;;;;;37.92;20.25;;;;;;;10.22;100.00;98938.88;4357929;32;20032;-72
2022/04/15 03:11:42;;;;;;;46.83;19.17;;;;;;;10.23;100.00;98939.66;4370385;32;20073;-73
2022/04/15 03:14:08;;;;;;;35.25;18.30;;;;;;;10.47;100.00;98973.41;4370571;32;20039;-75
2022/04/15 03:16:34;;;;;;;61.33;19.58;;;;;;;10.41;100.00;98962.81;4372108;32;20040;-74
2022/04/15 03:19:01;;;;;;;35.88;19.17;;;;;;;10.53;100.00;98983.16;4372044;32;20112;-74
2022/04/15 03:21:28;;;;;;;40.42;18.15;;;;;;;10.52;100.00;98986.91;4372187;32;20077;-74
2022/04/15 03:23:54;;;;;;;35.70;18.12;;;;;;;10.54;100.00;98984.78;4371928;32;20445;-75
2022/04/15 03:26:24;;;;;;;41.65;19.02;;;;;;;10.51;100.00;98990.69;4367477;32;20087;-74
2022/04/15 03:28:50;;;;;;;36.35;17.85;;;;;;;10.51;100.00;98993.38;4357115;32;20031;-74
2022/04/15 03:31:16;;;;;;;37.40;19.45;;;;;;;10.49;100.00;98982.03;4356866;32;20036;-74
2022/04/15 03:33:44;;;;;;;32.08;17.25;;;;;;;10.57;100.00;98993.44;4357697;32;20073;-74
2022/04/15 03:36:10;;;;;;;48.72;18.27;;;;;;;10.55;100.00;99001.78;4355544;32;20040;-74
2022/04/15 03:38:37;;;;;;;34.95;18.95;;;;;;;10.39;100.00;98987.31;4357417;32;20056;-74
2022/04/15 03:41:03;;;;;;;35.83;18.67;;;;;;;10.36;100.00;98996.69;4364862;32;20360;-74
2022/04/15 03:43:30;;;;;;;38.38;17.42;;;;;;;10.13;100.00;98962.72;4372228;32;20035;-74
2022/04/15 03:45:56;;;;;;;40.10;19.25;;;;;;;10.30;100.00;98991.44;4370169;32;20028;-74
2022/04/15 03:48:23;;;;;;;44.65;20.33;;;;;;;10.00;100.00;98957.66;4372372;32;20296;-73
2022/04/15 03:50:49;;;;;;;37.20;18.48;;;;;;;10.14;100.00;98988.53;4372026;32;20061;-74
2022/04/15 03:53:16;;;;;;;40.08;19.40;;;;;;;10.20;100.00;98994.00;4372278;32;20378;-74
2022/04/15 03:55:42;;;;;;;42.97;19.00;;;;;;;10.13;100.00;99005.75;4359682;32;20065;-75
2022/04/15 03:58:11;;;;;;;40.33;18.67;;;;;;;9.87;100.00;98958.84;4354536;32;20451;-74
2022/04/15 04:00:37;;;;;;;50.67;19.55;;;;;;;10.09;100.00;98988.47;4360495;32;20043;-74
2022/04/15 04:03:04;;;;;;;38.63;19.77;;;;;;;9.81;100.00;98960.66;4363715;32;20044;-74
2022/04/15 04:05:30;;;;;;;38.78;18.55;;;;;;;10.01;100.00;98991.59;4362311;32;20361;-74
2022/04/15 04:07:56;;;;;;;37.88;19.52;;;;;;;9.98;100.00;98997.47;4362503;32;20311;-76
2022/04/15 04:10:23;;;;;;;46.20;19.55;;;;;;;9.85;100.00;98993.22;4359123;32;20039;-73
2022/04/15 04:12:51;;;;;;;40.10;20.05;;;;;;;9.59;100.00;98962.47;4359784;32;20051;-74
2022/04/15 04:15:18;;;;;;;35.78;19.70;;;;;;;9.68;100.00;98982.47;4361260;32;20044;-72
2022/04/15 04:17:52;;;;;;;35.40;18.90;;;;;;;9.78;100.00;99009.53;4354715;32;20048;-74
2022/04/15 04:20:18;;;;;;;48.08;20.62;;;;;;;9.65;100.00;99009.84;4356108;32;20036;-74
2022/04/15 04:22:44;;;;;;;46.47;20.65;;;;;;;9.56;100.00;99001.38;4354990;32;20047;-73
2022/04/15 04:25:11;;;;;;;36.20;20.05;;;;;;;9.53;100.00;99009.13;4355559;32;20072;-73
2022/04/15 04:27:39;;;;;;;42.90;22.37;;;;;;;9.50;100.00;98971.97;4361586;32;20032;-73
2022/04/15 04:30:07;;;;;;;41.47;20.20;;;;;;;9.93;100.00;99005.47;4359840;32;20065;-76
2022/04/15 04:32:35;;;;;;;46.45;20.88;;;;;;;9.82;100.00;99016.03;4363684;32;20079;-73
2022/04/15 04:35:02;;;;;;;38.72;22.62;;;;;;;9.72;100.00;98969.38;4362337;32;20426;-74
2022/04/15 04:37:28;;;;;;;40.30;20.83;;;;;;;10.08;100.00;99012.94;4363336;32;20043;-74
2022/04/15 04:39:55;;;;;;;41.75;20.98;;;;;;;10.16;100.00;99007.12;4347205;32;20043;-73
2022/04/15 04:42:22;;;;;;;34.72;20.95;;;;;;;10.26;100.00;99019.91;4339669;33;20067;-74
2022/04/15 04:44:48;;;;;;;36.67;20.65;;;;;;;10.26;100.00;99001.91;4347997;32;20069;-74
2022/04/15 04:47:17;;;;;;;36.47;17.85;;;;;;;10.28;100.00;98996.28;4347803;32;20051;-74
2022/04/15 04:49:43;;;;;;;36.08;19.33;;;;;;;10.23;100.00;99015.84;4347881;32;20106;-75
2022/04/15 04:52:10;;;;;;;36.15;18.98;;;;;;;10.25;100.00;99007.53;4345467;32;20065;-75
2022/04/15 04:54:37;;;;;;;43.65;18.98;;;;;;;10.36;100.00;99033.56;4353061;32;20171;-74
2022/04/15 04:57:04;;;;;;;33.78;17.75;;;;;;;10.18;100.00;98986.19;4347412;32;20048;-74
2022/04/15 04:59:32;;;;;;;33.80;19.55;;;;;;;10.59;100.00;99034.38;4348715;32;20084;-75
2022/04/15 05:01:59;;;;;;;35.35;19.50;;;;;;;10.48;100.00;99004.66;4347239;32;20376;-72
2022/04/15 05:04:25;;;;;;;43.58;20.02;;;;;;;10.57;100.00;99036.53;4352969;32;20032;-77
2022/04/15 05:06:52;;;;;;;31.25;18.08;;;;;;;10.69;100.00;99039.88;4348087;32;20366;-73
2022/04/15 05:09:19;;;;;;;35.05;17.23;;;;;;;10.61;100.00;99043.84;4347973;32;20082;-73
2022/04/15 05:11:45;;;;;;;35.92;20.92;;;;;;;10.79;100.00;99039.22;4348242;32;20466;-73
2022/04/15 05:14:12;;;;;;;31.02;19.60;;;;;;;10.49;100.00;99000.88;4348080;32;20062;-73
2022/04/15 05:16:38;;;;;;;33.35;18.87;;;;;;;10.90;100.00;99030.19;4345601;32;20056;-75
2022/04/15 05:19:05;;;;;;;35.97;18.15;;;;;;;10.97;100.00;99030.00;4347288;32;20040;-72
2022/04/15 05:21:31;;;;;;;32.58;19.30;;;;;;;11.02;100.00;99021.97;4348636;32;20036;-73
2022/04/15 05:23:58;;;;;;;32.42;19.20;;;;;;;11.12;100.00;99019.41;4346447;32;20066;-73
2022/04/15 05:26:24;;;;;;;35.22;17.73;;;;;;;10.90;100.00;98984.41;4347278;32;20036;-73
2022/04/15 05:28:50;;;;;;;31.05;18.45;;;;;;;11.21;100.00;99034.03;4346202;32;20070;-77
2022/04/15 05:31:17;;;;;;;32.35;19.95;;;;;;;11.19;100.00;99038.88;4346464;32;20137;-73
2022/04/15 05:33:44;;;;;;;30.90;19.17;;;;;;;11.03;100.00;99008.25;4348688;32;20073;-73
2022/04/15 05:38:43;;;;;;;29.50;18.55;;;;;;;11.20;100.00;99042.38;4349095;32;20088;-75
2022/04/15 05:41:16;;;;;;;25.60;16.83;;;;;;;11.19;100.00;99038.88;4357587;32;20055;-73
2022/04/15 05:43:43;;;;;;;26.33;17.50;;;;;;;11.28;100.00;99044.62;4359387;32;20126;-73
2022/04/15 05:46:10;;;;;;;28.65;16.60;;;;;;;11.22;100.00;99043.75;4356488;32;20035;-73
2022/04/15 05:48:37;;;;;;;30.08;17.50;;;;;;;11.06;100.00;99033.87;4362136;32;20049;-79
2022/04/15 05:51:03;;;;;;;27.08;17.27;;;;;;;11.26;100.00;99050.28;4354141;32;20172;-72
2022/04/15 05:53:30;;;;;;;26.40;17.65;;;;;;;11.12;100.00;99019.41;4347474;32;20373;-73
2022/04/15 05:55:57;;;;;;;25.73;17.08;;;;;;;11.38;100.00;99054.69;4355483;32;20053;-73
2022/04/15 05:58:25;;;;;;;23.75;14.75;;;;;;;11.30;100.00;99055.16;4365746;32;20387;-72
2022/04/15 06:00:52;;;;;;;22.00;14.87;;;;;;;11.33;100.00;99055.47;4352604;32;20053;-76
2022/04/15 06:03:22;;;;;;;26.75;15.63;;;;;;;11.06;100.00;99023.09;4366642;32;20150;-74
2022/04/15 06:05:49;;;;;;;24.55;15.95;;;;;;;11.32;100.00;99061.09;4360547;32;20051;-73
2022/04/15 06:08:16;;;;;;;24.25;14.73;;;;;;;11.12;100.00;99032.87;4361478;32;20093;-72
2022/04/15 06:10:43;;;;;;;24.45;15.52;;;;;;;11.20;100.00;99050.44;4365061;32;20064;-75
2022/04/15 06:13:13;;;;;;;22.60;15.52;;;;;;;11.11;100.00;99033.94;4364957;32;20036;-73
2022/04/15 06:15:51;;;;;;;22.95;15.10;;;;;;;11.25;100.00;99062.13;4358248;32;20052;-72
2022/04/15 06:18:21;;;;;;;23.83;14.52;;;;;;;10.97;100.00;99024.63;4350037;32;20331;-72
2022/04/15 06:20:48;;;;;;;29.17;16.05;;;;;;;11.14;100.00;99056.87;4353472;33;20043;-72
2022/04/15 06:23:16;;;;;;;25.98;15.52;;;;;;;10.88;100.00;99027.75;4354807;33;20033;-72
2022/04/15 06:25:43;;;;;;;26.92;15.98;;;;;;;11.14;100.00;99054.19;4354830;33;20077;-71
2022/04/15 06:28:10;;;;;;;31.65;16.00;;;;;;;11.15;100.00;99072.75;4356827;32;20396;-71
2022/04/15 06:30:36;;;;;;;35.92;18.08;;;;;;;11.29;100.00;99069.69;4358924;32;20036;-72
2022/04/15 06:33:09;;;;;;;43.20;19.40;;;;;;;11.18;100.00;99056.09;4356504;32;20062;-75
2022/04/15 06:35:36;;;;;;;33.58;17.10;;;;;;;11.33;100.00;99068.09;4358614;32;20052;-71
2022/04/15 06:38:02;;;;;;;30.77;16.12;;;;;;;11.24;100.00;99076.66;4359146;32;20396;-71
2022/04/15 06:40:29;;;;;;;28.12;16.85;;;;;;;11.05;100.00;99048.41;4344109;33;20057;-71
2022/04/15 06:42:55;;;;;;;33.97;16.50;;;;;;;11.13;100.00;99074.91;4358120;32;20141;-71
2022/04/15 06:45:22;;;;;;;29.10;17.20;;;;;;;10.84;100.00;99009.66;4357579;32;20051;-73
2022/04/15 06:47:49;;;;;;;28.02;16.42;;;;;;;11.21;100.00;99068.25;4358328;32;20200;-71
2022/04/15 06:50:15;;;;;;;31.87;16.67;;;;;;;11.01;100.00;99041.88;4362972;32;21397;-71
2022/04/15 06:52:42;;;;;;;32.97;18.10;;;;;;;11.23;100.00;99072.34;4360593;32;20052;-72
2022/04/15 06:55:09;;;;;;;30.02;17.08;;;;;;;11.24;100.00;99060.47;4359083;32;20039;-71
2022/04/15 06:57:35;;;;;;;34.47;18.37;;;;;;;11.22;100.00;99059.91;4357356;32;20036;-74
2022/04/15 07:00:04;;;;;;;40.85;20.08;;;;;;;10.97;100.00;99030.00;4357108;32;20132;-72
2022/04/15 07:02:30;;;;;;;36.75;19.40;;;;;;;11.23;100.00;99066.13;4357619;32;20068;-71
2022/04/15 07:04:57;;;;;;;32.35;16.85;;;;;;;11.43;100.00;99062.84;4359354;32;20029;-73
2022/04/15 07:07:23;;;;;;;33.58;17.87;;;;;;;11.34;100.00;99053.56;4356616;32;20432;-77
2022/04/15 07:09:50;;;;;;;37.25;19.10;;;;;;;11.29;100.00;99064.31;4358048;32;20053;-72
2022/04/15 07:12:17;;;;;;;35.60;18.58;;;;;;;11.32;100.00;99069.19;4372894;32;20054;-72
2022/04/15 07:14:44;;;;;;;32.53;18.23;;;;;;;11.16;100.00;99057.44;4371514;32;20123;-72
2022/04/15 07:17:10;;;;;;;36.20;20.65;;;;;;;11.07;100.00;99051.66;4373187;32;20458;-74
2022/04/15 07:19:37;;;;;;;32.50;17.30;;;;;;;11.33;100.00;99070.78;4384737;32;20095;-71
2022/04/15 07:22:05;;;;;;;31.73;17.75;;;;;;;11.42;100.00;99069.28;4386009;32;20095;-72
2022/04/15 07:24:33;;;;;;;38.75;19.02;;;;;;;11.54;100.00;99077.22;4386730;32;20094;-72
2022/04/15 07:27:00;;;;;;;29.23;16.58;;;;;;;11.32;100.00;99036.84;4378366;32;20103;-73
2022/04/15 07:29:26;;;;;;;33.45;18.58;;;;;;;11.62;100.00;99074.88;4365271;32;20179;-73
2022/04/15 07:31:53;;;;;;;23.02;14.13;;;;;;;11.59;100.00;99086.16;4363285;32;20050;-71
2022/04/15 07:34:19;;;;;;;24.02;14.05;;;;;;;11.61;100.00;99084.03;4369857;32;20142;-73
2022/04/15 07:36:53;;;;;;;28.87;14.07;;;;;;;11.22;100.00;99032.16;4372132;32;20364;-72
2022/04/15 07:39:21;;;;;;;24.63;15.20;;;;;;;11.34;100.00;99040.91;4368319;32;20346;-73
2022/04/15 07:41:48;;;;;;;21.92;13.05;;;;;;;11.57;100.00;99082.12;4371133;32;20082;-72
2022/04/15 07:44:16;;;;;;;25.23;14.98;;;;;;;11.31;100.00;99041.41;4372160;32;20438;-72
2022/04/15 07:46:43;;;;;;;24.67;13.95;;;;;;;11.41;100.00;99040.72;4371211;32;20454;-72
2022/04/15 07:49:10;;;;;;;21.30;12.55;;;;;;;11.59;100.00;99077.28;4372046;32;20047;-75
2022/04/15 07:51:37;;;;;;;17.95;10.40;;;;;;;11.57;100.00;99088.31;4355892;32;20031;-72
2022/04/15 07:54:05;;;;;;;22.13;11.07;;;;;;;11.43;100.00;99076.31;4372274;32;20051;-72
2022/04/15 07:56:33;;;;;;;20.33;11.20;;;;;;;11.49;100.00;99080.69;4371917;32;20410;-71
2022/04/15 07:59:00;;;;;;;15.85;10.93;;;;;;;11.48;100.00;99089.84;4372230;32;20059;-72
2022/04/15 08:01:27;;;;;;;25.23;12.23;;;;;;;11.58;100.00;99091.81;4369450;32;20160;-75
2022/04/15 08:03:55;;;;;;;17.65;11.50;;;;;;;11.45;100.00;99085.78;4370323;32;20047;-72
2022/04/15 08:06:23;;;;;;;19.70;10.85;;;;;;;11.37;100.00;99083.53;4370346;32;20073;-72
2022/04/15 08:08:54;;;;;;;16.37;11.35;;;;;;;11.51;100.00;99092.03;4371900;32;20398;-71
2022/04/15 08:11:24;;;;;;;15.27;9.75;;;;;;;11.44;100.00;99099.53;4357472;32;20063;-73
2022/04/15 08:13:52;;;;;;;17.55;11.15;;;;;;;11.27;100.00;99062.66;4371780;32;20091;-71
2022/04/15 08:16:19;;;;;;;15.95;10.35;;;;;;;11.31;100.00;99099.91;4367660;32;20698;-72
2022/04/15 08:18:46;;;;;;;18.25;9.10;;;;;;;11.49;100.00;99106.81;4371516;32;20036;-71
2022/04/15 08:21:12;;;;;;;14.30;9.02;;;;;;;11.34;100.00;99104.78;4357310;32;20094;-70
2022/04/15 08:23:39;;;;;;;15.85;9.98;;;;;;;11.12;100.00;99067.91;4368698;32;20031;-73
2022/04/15 08:26:05;;;;;;;21.08;10.63;;;;;;;11.19;100.00;99059.62;4371211;32;20446;-70
2022/04/15 08:28:32;;;;;;;16.77;11.60;;;;;;;11.34;100.00;99064.34;4359035;32;20032;-71
2022/04/15 08:30:58;;;;;;;18.30;11.18;;;;;;;11.79;100.00;99109.00;4356367;32;20059;-72
2022/04/15 08:33:25;;;;;;;13.80;9.10;;;;;;;11.87;100.00;99092.38;4356241;32;20070;-71
2022/04/15 08:35:51;;;;;;;15.40;8.80;;;;;;;11.66;100.00;99074.38;4353873;32;20481;-73
2022/04/15 08:38:18;;;;;;;15.60;9.10;;;;;;;11.49;100.00;99059.12;4363639;32;20032;-71
2022/04/15 08:40:50;;;;;;;12.02;8.43;;;;;;;11.79;100.00;99084.72;4356942;32;20063;-72
2022/04/15 08:43:17;;;;;;;10.43;6.90;;;;;;;11.64;100.00;99061.94;4363465;32;20053;-72
2022/04/15 08:45:47;;;;;;;10.55;7.03;;;;;;;11.44;100.00;99067.97;4354731;32;20024;-73
2022/04/15 08:48:14;;;;;;;11.48;7.40;;;;;;;11.96;100.00;99101.63;4352742;32;20458;-73
2022/04/15 08:50:41;;;;;;;12.23;7.50;;;;;;;12.08;100.00;99103.38;4355857;32;20036;-75
2022/04/15 08:53:08;;;;;;;10.50;7.32;;;;;;;12.12;100.00;99109.87;4356516;32;20053;-72
2022/04/15 08:55:35;;;;;;;8.35;6.25;;;;;;;12.19;100.00;99102.37;4356275;32;20069;-72
2022/04/15 08:58:02;;;;;;;8.18;5.47;;;;;;;12.11;100.00;99114.47;4367133;32;20089;-72
2022/04/15 09:00:29;;;;;;;8.05;5.00;;;;;;;11.83;100.00;99085.84;4370065;32;20055;-71
2022/04/15 09:02:55;;;;;;;8.65;5.40;;;;;;;12.01;100.00;99102.75;4370569;32;20080;-71
2022/04/15 09:05:28;;;;;;;6.65;4.80;;;;;;;12.04;100.00;99115.75;4370023;32;20035;-73
2022/04/15 09:08:08;;;;;;;7.35;5.55;;;;;;;11.96;100.00;99055.75;4354023;32;20097;-76
2022/04/15 09:10:36;;;;;;;10.55;5.18;;;;;;;12.22;100.00;99099.16;4355161;32;20444;-70
2022/04/15 09:13:04;;;;;;;8.65;5.40;;;;;;;12.41;100.00;99104.13;4355955;32;20040;-70
2022/04/15 09:15:31;;;;;;;7.05;4.55;;;;;;;12.52;100.00;99119.34;4354573;32;20095;-70
2022/04/15 09:18:00;;;;;;;6.57;4.90;;;;;;;12.39;100.00;99063.09;4357041;32;20365;-70
2022/04/15 09:20:33;;;;;;;4.65;3.87;;;;;;;12.53;100.00;99072.34;4365650;32;20949;-69
2022/04/15 09:23:11;;;;;;;7.10;4.00;;;;;;;12.60;100.00;99116.13;4364546;32;20316;-71
2022/04/15 09:25:41;;;;;;;5.30;3.80;;;;;;;12.30;100.00;99105.94;4361041;32;20326;-72
2022/04/15 09:28:13;;;;;;;5.22;4.28;;;;;;;12.45;100.00;99113.34;4358493;32;21110;-70
2022/04/15 09:30:40;;;;;;;3.85;3.30;;;;;;;12.60;100.00;99108.03;4360689;32;20085;-70
2022/04/15 09:33:10;;;;;;;8.55;4.05;;;;;;;12.47;100.00;99119.31;4356394;32;20032;-70
2022/04/15 09:35:37;;;;;;;4.10;3.70;;;;;;;12.65;100.00;99109.97;4363828;32;20082;-73
2022/04/15 09:38:05;;;;;;;4.87;3.72;;;;;;;12.71;100.00;99096.22;4368010;32;20204;-71
2022/04/15 09:40:36;;;;;;;5.10;4.00;;;;;;;13.00;100.00;99095.84;4369255;32;20063;-70
2022/04/15 09:43:06;;;;;;;4.68;3.95;;;;;;;13.03;100.00;99097.97;4365138;32;20043;-70
2022/04/15 09:45:35;;;;;;;9.82;4.18;;;;;;;12.92;100.00;99112.53;4354137;32;20024;-70
2022/04/15 09:48:07;;;;;;;10.30;5.32;;;;;;;12.61;100.00;99117.78;4352574;32;20072;-69
2022/04/15 09:50:39;;;;;;;8.07;4.47;;;;;;;12.82;100.00;99112.50;4356186;32;20077;-70
2022/04/15 09:53:19;;;;;;;9.63;4.37;;;;;;;12.69;100.00;99065.94;4355263;32;20081;-70
2022/04/15 09:55:50;;;;;;;6.15;4.28;;;;;;;13.11;100.00;99095.88;4356987;32;20071;-71
2022/04/15 09:58:19;;;;;;;5.68;4.07;;;;;;;13.36;100.00;99089.75;4362483;32;20054;-71
2022/04/15 10:00:51;;;;;;;5.35;4.43;;;;;;;13.19;100.00;99106.16;4355353;32;20044;-71
2022/04/15 10:03:20;;;;;;;3.97;3.50;;;;;;;13.05;100.00;99062.59;4353218;32;20036;-70
2022/04/15 10:05:48;;;;;;;5.10;3.60;;;;;;;13.30;100.00;99097.00;4353349;32;20044;-71
2022/04/15 10:08:16;;;;;;;3.33;2.97;;;;;;;12.95;100.00;99084.97;4358341;32;20102;-70
2022/04/15 10:10:43;;;;;;;5.65;2.90;;;;;;;13.22;100.00;99105.62;4370015;32;20372;-70
2022/04/15 10:13:09;;;;;;;5.03;4.03;;;;;;;13.27;100.00;99062.38;4370261;32;20035;-70
2022/04/15 10:15:40;;;;;;;4.68;3.30;;;;;;;13.35;100.00;99045.66;4368590;32;20051;-72
2022/04/15 10:18:08;;;;;;;3.70;2.80;;;;;;;13.00;100.00;99001.25;4370029;32;20073;-70
2022/04/15 10:20:37;;;;;;;2.72;2.50;;;;;;;13.34;100.00;99045.94;4370487;32;20364;-70
2022/04/15 10:23:11;;;;;;;3.58;2.40;;;;;;;13.87;100.00;99083.62;4366131;32;20052;-71
2022/04/15 10:25:42;;;;;;;2.25;2.05;;;;;;;14.28;100.00;99072.75;4368379;32;20342;-71
2022/04/15 10:28:37;;;;;;;3.25;2.60;;;;;;;14.13;100.00;99054.63;4354303;33;20069;-71
2022/04/15 10:31:11;;;;;;;3.65;2.50;;;;;;;14.37;100.00;99073.03;4353184;33;20055;-71
2022/04/15 10:33:43;;;;;;;5.28;2.53;;;;;;;14.30;100.00;99070.59;4355626;33;20044;-70
2022/04/15 10:36:31;;;;;;;7.55;3.47;;;;;;;14.42;100.00;99068.41;4362560;32;20073;-70
2022/04/15 10:39:07;;;;;;;6.22;2.20;;;;;;;14.05;100.00;99064.13;4370156;32;20064;-70
2022/04/15 10:41:57;;;;;;;8.88;2.62;;;;;;;14.38;100.00;99078.19;4359262;32;20040;-71
2022/04/15 10:44:29;;;;;;;4.57;2.85;;;;;;;14.76;100.00;99065.09;4345776;32;20074;-71
2022/04/15 10:47:24;;;;;;;4.57;3.33;;;;;;;14.66;100.00;99057.00;4360769;32;20422;-70
2022/04/15 10:49:57;;;;;;;4.22;2.40;;;;;;;14.77;100.00;99064.00;4353759;32;20080;-71
2022/04/15 10:52:26;;;;;;;2.20;2.08;;;;;;;14.80;100.00;99073.50;4355368;33;20485;-70
2022/04/15 10:55:00;;;;;;;2.15;1.92;;;;;;;14.78;100.00;99049.38;4354843;33;20085;-70
2022/04/15 10:57:36;;;;;;;3.10;2.05;;;;;;;14.61;100.00;99060.53;4349990;32;20039;-72
2022/04/15 11:03:00;;;;;;;1.92;1.80;;;;;;;14.97;100.00;99067.75;4368706;32;20069;-70
2022/04/15 11:05:42;;;;;;;2.08;1.80;;;;;;;14.49;100.00;99071.66;4356320;32;20070;-71
2022/04/15 11:08:14;;;;;;;1.98;1.87;;;;;;;14.52;100.00;99079.22;4354880;33;20078;-70
2022/04/15 11:10:44;;;;;;;7.37;2.85;;;;;;;14.28;100.00;99029.44;4354766;33;20430;-72
2022/04/15 11:13:33;;;;;;;2.25;2.10;;;;;;;14.69;100.00;99051.03;4353200;32;20040;-71
2022/04/15 11:16:13;;;;;;;6.75;2.05;;;;;;;15.11;100.00;99046.25;4357063;32;20048;-71
2022/04/15 11:18:43;;;;;;;6.40;2.83;;;;;;;14.73;100.00;98959.97;4355902;32;20175;-75
2022/04/15 11:21:27;;;;;;;3.90;2.20;;;;;;;15.51;100.00;99050.63;4356959;32;20047;-71
2022/04/15 11:24:00;;;;;;;6.72;2.15;;;;;;;15.68;100.00;99038.56;4357765;32;20055;-69
2022/04/15 11:26:28;;;;;;;2.70;2.42;;;;;;;15.84;100.00;99048.22;4356547;32;20036;-70